AUA25L EDDH-LOWW
Flight info
| Callsign | AUA25L |
|---|---|
| Flight time | 1h 12m |
| Altitude | 35000 |
| Route | RAMAR6G RAMAR Z998 RATMO DCT HDO DCT EVIKU DCT BITSI DCT MIKOV MIKOV8W |
| Aircraft | A320/M-SDE3FGHIRWY/LB1 |
Departure
| Time | 2026-04-26 13:19 |
|---|---|
| Airport | Hamburg Helmut Schmidt Airport (EDDH) |
Arrival
| Time | 2026-04-26 14:32 |
|---|---|
| Airport | Vienna International Airport (LOWW) |
| Time | Latitude | Longitude | Altitude | Speed | Heading |
|---|---|---|---|---|---|
| 2026-04-26 12:45 | 53.63195 | 10.00369 | 51 ft | 0 kts | 86° |
| 2026-04-26 13:10 | 53.63195 | 10.00363 | 51 ft | 3 kts | 87° |
| 2026-04-26 13:10 | 53.63194 | 10.00318 | 51 ft | 4 kts | 94° |
| 2026-04-26 13:10 | 53.63197 | 10.00274 | 48 ft | 4 kts | 102° |
| 2026-04-26 13:11 | 53.63205 | 10.00230 | 49 ft | 4 kts | 115° |
| 2026-04-26 13:11 | 53.63219 | 10.00192 | 45 ft | 4 kts | 140° |
| 2026-04-26 13:11 | 53.63236 | 10.00176 | 46 ft | 0 kts | 175° |
| 2026-04-26 13:15 | 53.63228 | 10.00178 | 46 ft | 4 kts | 169° |
| 2026-04-26 13:15 | 53.63193 | 10.00228 | 47 ft | 7 kts | 137° |
| 2026-04-26 13:16 | 53.63152 | 10.00251 | 51 ft | 7 kts | 174° |
| 2026-04-26 13:16 | 53.63090 | 10.00259 | 51 ft | 9 kts | 177° |
| 2026-04-26 13:16 | 53.63036 | 10.00229 | 51 ft | 8 kts | 211° |
| 2026-04-26 13:16 | 53.62992 | 10.00183 | 49 ft | 8 kts | 212° |
| 2026-04-26 13:17 | 53.62894 | 10.00077 | 51 ft | 9 kts | 212° |
| 2026-04-26 13:17 | 53.62857 | 10.00007 | 52 ft | 7 kts | 244° |
| 2026-04-26 13:18 | 53.62814 | 9.99790 | 52 ft | 10 kts | 305° |
| 2026-04-26 13:18 | 53.62843 | 9.99760 | 52 ft | 3 kts | 333° |
| 2026-04-26 13:18 | 53.63553 | 9.99148 | 52 ft | 123 kts | 333° |
| 2026-04-26 13:19 | 53.64467 | 9.98358 | 113 ft | 165 kts | 333° |
| 2026-04-26 13:19 | 53.65485 | 9.97505 | 822 ft | 164 kts | 333° |
| 2026-04-26 13:19 | 53.66527 | 9.96626 | 1498 ft | 175 kts | 332° |
| 2026-04-26 13:19 | 53.67678 | 9.95638 | 1941 ft | 197 kts | 332° |
| 2026-04-26 13:20 | 53.69026 | 9.94745 | 2577 ft | 216 kts | 352° |
| 2026-04-26 13:20 | 53.70530 | 9.94680 | 3481 ft | 217 kts | 359° |
| 2026-04-26 13:20 | 53.72054 | 9.94738 | 4427 ft | 221 kts | 6° |
| 2026-04-26 13:20 | 53.73515 | 9.95694 | 5118 ft | 239 kts | 37° |
| 2026-04-26 13:21 | 53.74568 | 9.98006 | 5609 ft | 264 kts | 71° |
| 2026-04-26 13:21 | 53.74761 | 10.00049 | 6098 ft | 271 kts | 90° |
| 2026-04-26 13:21 | 53.74627 | 10.04322 | 7267 ft | 279 kts | 92° |
| 2026-04-26 13:21 | 53.74495 | 10.07674 | 8145 ft | 285 kts | 92° |
| 2026-04-26 13:22 | 53.74364 | 10.11003 | 8988 ft | 291 kts | 91° |
| 2026-04-26 13:22 | 53.74232 | 10.14453 | 9808 ft | 297 kts | 91° |
| 2026-04-26 13:22 | 53.74099 | 10.17969 | 10559 ft | 306 kts | 90° |
| 2026-04-26 13:22 | 53.73962 | 10.21699 | 10870 ft | 330 kts | 90° |
| 2026-04-26 13:23 | 53.73820 | 10.25659 | 11364 ft | 343 kts | 91° |
| 2026-04-26 13:23 | 53.73669 | 10.29720 | 12086 ft | 350 kts | 91° |
| 2026-04-26 13:23 | 53.73513 | 10.33848 | 12845 ft | 355 kts | 91° |
| 2026-04-26 13:23 | 53.73354 | 10.38030 | 13596 ft | 359 kts | 91° |
| 2026-04-26 13:24 | 53.73189 | 10.42274 | 14309 ft | 364 kts | 91° |
| 2026-04-26 13:24 | 53.73019 | 10.46567 | 14956 ft | 369 kts | 91° |
| 2026-04-26 13:24 | 53.72847 | 10.50911 | 15596 ft | 373 kts | 91° |
| 2026-04-26 13:24 | 53.72673 | 10.55315 | 16227 ft | 378 kts | 91° |
| 2026-04-26 13:25 | 53.72366 | 10.59743 | 16846 ft | 384 kts | 103° |
| 2026-04-26 13:25 | 53.71334 | 10.63928 | 17454 ft | 390 kts | 123° |
| 2026-04-26 13:25 | 53.69585 | 10.67436 | 18068 ft | 393 kts | 136° |
| 2026-04-26 13:25 | 53.67644 | 10.70727 | 18709 ft | 397 kts | 136° |
| 2026-04-26 13:26 | 53.65676 | 10.74026 | 19263 ft | 401 kts | 136° |
| 2026-04-26 13:26 | 53.63689 | 10.77346 | 19821 ft | 404 kts | 136° |
| 2026-04-26 13:26 | 53.61688 | 10.80690 | 20381 ft | 407 kts | 136° |
| 2026-04-26 13:26 | 53.59671 | 10.84062 | 20950 ft | 410 kts | 136° |
| 2026-04-26 13:27 | 53.57669 | 10.87415 | 21485 ft | 413 kts | 136° |
| 2026-04-26 13:27 | 53.55627 | 10.90836 | 22030 ft | 416 kts | 136° |
| 2026-04-26 13:27 | 53.53568 | 10.94286 | 22539 ft | 419 kts | 136° |
| 2026-04-26 13:27 | 53.51495 | 10.97752 | 23061 ft | 422 kts | 136° |
| 2026-04-26 13:28 | 53.49402 | 11.01244 | 23576 ft | 425 kts | 137° |
| 2026-04-26 13:28 | 53.47297 | 11.04753 | 24051 ft | 428 kts | 137° |
| 2026-04-26 13:28 | 53.45173 | 11.08289 | 24468 ft | 431 kts | 137° |
| 2026-04-26 13:28 | 53.43038 | 11.11838 | 24874 ft | 434 kts | 137° |
| 2026-04-26 13:29 | 53.40885 | 11.15411 | 25276 ft | 437 kts | 137° |
| 2026-04-26 13:29 | 53.39421 | 11.17836 | 25549 ft | 439 kts | 137° |
| 2026-04-26 13:29 | 53.36535 | 11.22609 | 26064 ft | 442 kts | 137° |
| 2026-04-26 13:29 | 53.34338 | 11.26238 | 26460 ft | 445 kts | 137° |
| 2026-04-26 13:30 | 53.32126 | 11.29883 | 26846 ft | 448 kts | 137° |
| 2026-04-26 13:30 | 53.29897 | 11.33545 | 27238 ft | 450 kts | 137° |
| 2026-04-26 13:30 | 53.27654 | 11.37222 | 27617 ft | 453 kts | 137° |
| 2026-04-26 13:30 | 53.25391 | 11.40905 | 27990 ft | 456 kts | 138° |
| 2026-04-26 13:31 | 53.23081 | 11.44546 | 28356 ft | 458 kts | 139° |
| 2026-04-26 13:31 | 53.20729 | 11.48153 | 28723 ft | 461 kts | 140° |
| 2026-04-26 13:31 | 53.18342 | 11.51750 | 29080 ft | 463 kts | 140° |
| 2026-04-26 13:31 | 53.15942 | 11.55348 | 29441 ft | 466 kts | 140° |
| 2026-04-26 13:32 | 53.13530 | 11.58978 | 29793 ft | 468 kts | 140° |
| 2026-04-26 13:32 | 53.11115 | 11.62638 | 30143 ft | 471 kts | 140° |
| 2026-04-26 13:32 | 53.08691 | 11.66333 | 30468 ft | 474 kts | 140° |
| 2026-04-26 13:32 | 53.06261 | 11.70051 | 30751 ft | 476 kts | 140° |
| 2026-04-26 13:33 | 53.03824 | 11.73782 | 31038 ft | 478 kts | 140° |
| 2026-04-26 13:33 | 53.01405 | 11.77472 | 31309 ft | 479 kts | 140° |
| 2026-04-26 13:33 | 52.99011 | 11.81343 | 31586 ft | 483 kts | 134° |
| 2026-04-26 13:33 | 52.96906 | 11.85703 | 31884 ft | 485 kts | 129° |
| 2026-04-26 13:34 | 52.94875 | 11.90173 | 32275 ft | 484 kts | 129° |
| 2026-04-26 13:34 | 52.92849 | 11.94614 | 32679 ft | 483 kts | 129° |
| 2026-04-26 13:34 | 52.90821 | 11.99043 | 33072 ft | 482 kts | 130° |
| 2026-04-26 13:34 | 52.89449 | 12.02027 | 33335 ft | 481 kts | 130° |
| 2026-04-26 13:35 | 52.86762 | 12.07853 | 33842 ft | 480 kts | 130° |
| 2026-04-26 13:35 | 52.84744 | 12.12240 | 34233 ft | 479 kts | 130° |
| 2026-04-26 13:35 | 52.82729 | 12.16624 | 34569 ft | 478 kts | 130° |
| 2026-04-26 13:35 | 52.80717 | 12.20998 | 34891 ft | 477 kts | 130° |
| 2026-04-26 13:36 | 52.78704 | 12.25364 | 35197 ft | 477 kts | 130° |
| 2026-04-26 13:36 | 52.76692 | 12.29711 | 35299 ft | 475 kts | 130° |
| 2026-04-26 13:36 | 52.74697 | 12.34010 | 35317 ft | 469 kts | 130° |
| 2026-04-26 13:37 | 52.70587 | 12.42277 | 35315 ft | 463 kts | 139° |
| 2026-04-26 13:37 | 52.65531 | 12.48671 | 35315 ft | 457 kts | 149° |
| 2026-04-26 13:38 | 52.60300 | 12.54609 | 35314 ft | 457 kts | 149° |
| 2026-04-26 13:38 | 52.55076 | 12.60571 | 35313 ft | 457 kts | 149° |
| 2026-04-26 13:39 | 52.49851 | 12.66521 | 35311 ft | 457 kts | 149° |
| 2026-04-26 13:39 | 52.44621 | 12.72442 | 35308 ft | 457 kts | 149° |
| 2026-04-26 13:40 | 52.39394 | 12.78338 | 35312 ft | 457 kts | 149° |
| 2026-04-26 13:40 | 52.34189 | 12.84182 | 35311 ft | 456 kts | 149° |
| 2026-04-26 13:41 | 52.28952 | 12.90041 | 35310 ft | 456 kts | 149° |
| 2026-04-26 13:41 | 52.23733 | 12.95865 | 35312 ft | 456 kts | 149° |
| 2026-04-26 13:42 | 52.18493 | 13.01710 | 35309 ft | 456 kts | 149° |
| 2026-04-26 13:42 | 52.13255 | 13.07536 | 35308 ft | 456 kts | 149° |
| 2026-04-26 13:43 | 52.08013 | 13.13337 | 35308 ft | 455 kts | 149° |
| 2026-04-26 13:43 | 52.02774 | 13.19128 | 35305 ft | 455 kts | 149° |
| 2026-04-26 13:44 | 51.97536 | 13.24909 | 35303 ft | 455 kts | 149° |
| 2026-04-26 13:44 | 51.92299 | 13.30655 | 35297 ft | 455 kts | 149° |
| 2026-04-26 13:45 | 51.87096 | 13.36353 | 35296 ft | 454 kts | 149° |
| 2026-04-26 13:45 | 51.81853 | 13.42071 | 35297 ft | 454 kts | 150° |
| 2026-04-26 13:46 | 51.76609 | 13.47774 | 35299 ft | 454 kts | 150° |
| 2026-04-26 13:46 | 51.71362 | 13.53471 | 35304 ft | 454 kts | 150° |
| 2026-04-26 13:47 | 51.66116 | 13.59149 | 35305 ft | 454 kts | 150° |
| 2026-04-26 13:47 | 51.60879 | 13.64817 | 35307 ft | 454 kts | 150° |
| 2026-04-26 13:48 | 51.55629 | 13.70466 | 35309 ft | 454 kts | 150° |
| 2026-04-26 13:48 | 51.50375 | 13.76094 | 35305 ft | 454 kts | 150° |
| 2026-04-26 13:49 | 51.45121 | 13.81719 | 35307 ft | 454 kts | 150° |
| 2026-04-26 13:49 | 51.39870 | 13.87335 | 35301 ft | 454 kts | 150° |
| 2026-04-26 13:50 | 51.34651 | 13.92889 | 35297 ft | 453 kts | 150° |
| 2026-04-26 13:50 | 51.29395 | 13.98464 | 35299 ft | 453 kts | 150° |
| 2026-04-26 13:51 | 51.24148 | 14.04028 | 35299 ft | 453 kts | 150° |
| 2026-04-26 13:51 | 51.18893 | 14.09581 | 35297 ft | 453 kts | 150° |
| 2026-04-26 13:52 | 51.13638 | 14.15107 | 35300 ft | 453 kts | 150° |
| 2026-04-26 13:52 | 51.08387 | 14.20622 | 35300 ft | 452 kts | 150° |
| 2026-04-26 13:53 | 51.03127 | 14.26121 | 35301 ft | 452 kts | 150° |
| 2026-04-26 13:53 | 50.97871 | 14.31602 | 35295 ft | 452 kts | 150° |
| 2026-04-26 13:54 | 50.92675 | 14.37236 | 35293 ft | 453 kts | 147° |
| 2026-04-26 13:54 | 50.87658 | 14.43308 | 35289 ft | 454 kts | 145° |
| 2026-04-26 13:55 | 50.81029 | 14.51484 | 35287 ft | 454 kts | 146° |
| 2026-04-26 13:56 | 50.72613 | 14.61486 | 35283 ft | 453 kts | 147° |
| 2026-04-26 13:56 | 50.67558 | 14.67441 | 35281 ft | 454 kts | 147° |
| 2026-04-26 13:57 | 50.62506 | 14.73412 | 35278 ft | 454 kts | 146° |
| 2026-04-26 13:57 | 50.57462 | 14.79386 | 35274 ft | 454 kts | 146° |
| 2026-04-26 13:58 | 50.52444 | 14.85300 | 35276 ft | 454 kts | 147° |
| 2026-04-26 13:58 | 50.47385 | 14.91229 | 35269 ft | 454 kts | 147° |
| 2026-04-26 13:59 | 50.42315 | 14.97141 | 35272 ft | 454 kts | 147° |
| 2026-04-26 13:59 | 50.37248 | 15.03051 | 35268 ft | 454 kts | 147° |
| 2026-04-26 14:00 | 50.27959 | 15.13859 | 35265 ft | 454 kts | 147° |
| 2026-04-26 14:01 | 50.22884 | 15.19733 | 35263 ft | 454 kts | 147° |
| 2026-04-26 14:01 | 50.17805 | 15.25596 | 35261 ft | 454 kts | 147° |
| 2026-04-26 14:02 | 50.12717 | 15.31447 | 35264 ft | 454 kts | 147° |
| 2026-04-26 14:02 | 50.07635 | 15.37286 | 35261 ft | 454 kts | 147° |
| 2026-04-26 14:03 | 50.02547 | 15.43120 | 35260 ft | 454 kts | 147° |
| 2026-04-26 14:03 | 49.97458 | 15.48927 | 35257 ft | 454 kts | 147° |
| 2026-04-26 14:04 | 49.92362 | 15.54720 | 35256 ft | 454 kts | 147° |
| 2026-04-26 14:04 | 49.87266 | 15.60518 | 35254 ft | 454 kts | 147° |
| 2026-04-26 14:05 | 49.82199 | 15.66259 | 35262 ft | 454 kts | 147° |
| 2026-04-26 14:05 | 49.77097 | 15.72037 | 35257 ft | 455 kts | 147° |
| 2026-04-26 14:06 | 49.71976 | 15.77806 | 35011 ft | 459 kts | 147° |
| 2026-04-26 14:06 | 49.69376 | 15.80723 | 34761 ft | 464 kts | 147° |
| 2026-04-26 14:06 | 49.66757 | 15.83659 | 34525 ft | 466 kts | 147° |
| 2026-04-26 14:06 | 49.64127 | 15.86608 | 34282 ft | 468 kts | 147° |
| 2026-04-26 14:07 | 49.61494 | 15.89563 | 33978 ft | 468 kts | 147° |
| 2026-04-26 14:07 | 49.58868 | 15.92511 | 33332 ft | 466 kts | 147° |
| 2026-04-26 14:07 | 49.56253 | 15.95441 | 32738 ft | 463 kts | 147° |
| 2026-04-26 14:07 | 49.53650 | 15.98347 | 32105 ft | 461 kts | 147° |
| 2026-04-26 14:08 | 49.51056 | 16.01234 | 31512 ft | 460 kts | 147° |
| 2026-04-26 14:08 | 49.48465 | 16.04110 | 30898 ft | 458 kts | 147° |
| 2026-04-26 14:08 | 49.45881 | 16.06977 | 30300 ft | 457 kts | 147° |
| 2026-04-26 14:08 | 49.43309 | 16.09829 | 29646 ft | 455 kts | 147° |
| 2026-04-26 14:09 | 49.40753 | 16.12663 | 29070 ft | 451 kts | 147° |
| 2026-04-26 14:09 | 49.38217 | 16.15474 | 28481 ft | 448 kts | 147° |
| 2026-04-26 14:09 | 49.35696 | 16.18259 | 27914 ft | 445 kts | 147° |
| 2026-04-26 14:09 | 49.33189 | 16.21022 | 27354 ft | 442 kts | 147° |
| 2026-04-26 14:10 | 49.30661 | 16.23653 | 26834 ft | 436 kts | 153° |
| 2026-04-26 14:10 | 49.27983 | 16.25759 | 26350 ft | 430 kts | 157° |
| 2026-04-26 14:10 | 49.25307 | 16.27747 | 25873 ft | 426 kts | 157° |
| 2026-04-26 14:10 | 49.22652 | 16.29714 | 25421 ft | 422 kts | 157° |
| 2026-04-26 14:11 | 49.17408 | 16.33586 | 24507 ft | 415 kts | 156° |
| 2026-04-26 14:11 | 49.14813 | 16.35498 | 24053 ft | 413 kts | 156° |
| 2026-04-26 14:11 | 49.12265 | 16.37374 | 23553 ft | 411 kts | 156° |
| 2026-04-26 14:12 | 49.09665 | 16.39288 | 23086 ft | 407 kts | 156° |
| 2026-04-26 14:12 | 49.07155 | 16.41134 | 22629 ft | 404 kts | 156° |
| 2026-04-26 14:12 | 49.04631 | 16.42991 | 22170 ft | 402 kts | 156° |
| 2026-04-26 14:12 | 49.02122 | 16.44835 | 21704 ft | 400 kts | 156° |
| 2026-04-26 14:13 | 48.97137 | 16.48490 | 20770 ft | 396 kts | 156° |
| 2026-04-26 14:13 | 48.94653 | 16.50308 | 20301 ft | 395 kts | 155° |
| 2026-04-26 14:13 | 48.92176 | 16.52121 | 19830 ft | 395 kts | 155° |
| 2026-04-26 14:14 | 48.89702 | 16.53928 | 19363 ft | 394 kts | 155° |
| 2026-04-26 14:14 | 48.87231 | 16.55726 | 18900 ft | 394 kts | 155° |
| 2026-04-26 14:14 | 48.84756 | 16.57521 | 18419 ft | 394 kts | 155° |
| 2026-04-26 14:14 | 48.82286 | 16.59312 | 17913 ft | 392 kts | 155° |
| 2026-04-26 14:15 | 48.79831 | 16.61095 | 17465 ft | 390 kts | 156° |
| 2026-04-26 14:15 | 48.77293 | 16.62477 | 17060 ft | 385 kts | 168° |
| 2026-04-26 14:15 | 48.74695 | 16.63332 | 16865 ft | 382 kts | 170° |
| 2026-04-26 14:15 | 48.72112 | 16.64173 | 16516 ft | 378 kts | 170° |
| 2026-04-26 14:16 | 48.69549 | 16.65016 | 16126 ft | 375 kts | 170° |
| 2026-04-26 14:16 | 48.67009 | 16.65857 | 15750 ft | 373 kts | 169° |
| 2026-04-26 14:16 | 48.64475 | 16.66698 | 15508 ft | 372 kts | 169° |
| 2026-04-26 14:16 | 48.61950 | 16.67509 | 15206 ft | 370 kts | 173° |
| 2026-04-26 14:17 | 48.59411 | 16.67715 | 14903 ft | 363 kts | 187° |
| 2026-04-26 14:17 | 48.56906 | 16.67413 | 14643 ft | 362 kts | 184° |
| 2026-04-26 14:17 | 48.54385 | 16.67556 | 14410 ft | 363 kts | 178° |
| 2026-04-26 14:17 | 48.51880 | 16.68000 | 14170 ft | 362 kts | 174° |
| 2026-04-26 14:18 | 48.49392 | 16.68567 | 13928 ft | 361 kts | 173° |
| 2026-04-26 14:18 | 48.46916 | 16.69139 | 13655 ft | 359 kts | 174° |
| 2026-04-26 14:18 | 48.44450 | 16.69664 | 13387 ft | 357 kts | 175° |
| 2026-04-26 14:18 | 48.41987 | 16.70136 | 13123 ft | 356 kts | 175° |
| 2026-04-26 14:19 | 48.39537 | 16.70565 | 12857 ft | 354 kts | 176° |
| 2026-04-26 14:19 | 48.37099 | 16.70967 | 12597 ft | 352 kts | 176° |
| 2026-04-26 14:19 | 48.34702 | 16.71352 | 12353 ft | 350 kts | 176° |
| 2026-04-26 14:19 | 48.32283 | 16.71736 | 12099 ft | 349 kts | 177° |
| 2026-04-26 14:20 | 48.29874 | 16.72117 | 11837 ft | 348 kts | 177° |
| 2026-04-26 14:20 | 48.27474 | 16.72501 | 11590 ft | 346 kts | 176° |
| 2026-04-26 14:20 | 48.25086 | 16.72885 | 11342 ft | 345 kts | 177° |
| 2026-04-26 14:20 | 48.22708 | 16.73271 | 11093 ft | 343 kts | 176° |
| 2026-04-26 14:21 | 48.20339 | 16.73661 | 10836 ft | 342 kts | 176° |
| 2026-04-26 14:21 | 48.17977 | 16.74049 | 10602 ft | 341 kts | 176° |
| 2026-04-26 14:21 | 48.15625 | 16.74434 | 10359 ft | 339 kts | 176° |
| 2026-04-26 14:21 | 48.13282 | 16.74818 | 10121 ft | 338 kts | 176° |
| 2026-04-26 14:22 | 48.10957 | 16.75196 | 9897 ft | 332 kts | 176° |
| 2026-04-26 14:22 | 48.08699 | 16.75565 | 9759 ft | 321 kts | 177° |
| 2026-04-26 14:22 | 48.06504 | 16.75922 | 9624 ft | 314 kts | 177° |
| 2026-04-26 14:22 | 48.04339 | 16.76271 | 9492 ft | 312 kts | 177° |
| 2026-04-26 14:23 | 48.02183 | 16.76620 | 9357 ft | 311 kts | 177° |
| 2026-04-26 14:23 | 48.00034 | 16.76967 | 9221 ft | 310 kts | 177° |
| 2026-04-26 14:23 | 47.97901 | 16.77310 | 9082 ft | 304 kts | 177° |
| 2026-04-26 14:23 | 47.95807 | 16.77650 | 8748 ft | 302 kts | 177° |
| 2026-04-26 14:24 | 47.93744 | 16.78297 | 8323 ft | 305 kts | 167° |
| 2026-04-26 14:24 | 47.91695 | 16.79142 | 7872 ft | 305 kts | 168° |
| 2026-04-26 14:24 | 47.89698 | 16.79727 | 7440 ft | 288 kts | 186° |
| 2026-04-26 14:24 | 47.87859 | 16.79053 | 7039 ft | 261 kts | 217° |
| 2026-04-26 14:25 | 47.86571 | 16.77369 | 6649 ft | 236 kts | 243° |
| 2026-04-26 14:25 | 47.85936 | 16.75252 | 6272 ft | 217 kts | 262° |
| 2026-04-26 14:25 | 47.85541 | 16.73091 | 5934 ft | 216 kts | 261° |
| 2026-04-26 14:25 | 47.85394 | 16.70923 | 5526 ft | 209 kts | 288° |
| 2026-04-26 14:26 | 47.86075 | 16.69117 | 5263 ft | 200 kts | 319° |
| 2026-04-26 14:26 | 47.87287 | 16.68187 | 5031 ft | 198 kts | 342° |
| 2026-04-26 14:26 | 47.88619 | 16.67637 | 4769 ft | 198 kts | 343° |
| 2026-04-26 14:26 | 47.89938 | 16.67094 | 4496 ft | 196 kts | 343° |
| 2026-04-26 14:27 | 47.91229 | 16.66555 | 4233 ft | 189 kts | 343° |
| 2026-04-26 14:27 | 47.92493 | 16.66025 | 3977 ft | 188 kts | 344° |
| 2026-04-26 14:27 | 47.93744 | 16.65501 | 3719 ft | 186 kts | 345° |
| 2026-04-26 14:27 | 47.94973 | 16.64984 | 3500 ft | 180 kts | 345° |
| 2026-04-26 14:28 | 47.96155 | 16.64487 | 3244 ft | 173 kts | 345° |
| 2026-04-26 14:28 | 47.97271 | 16.64018 | 3016 ft | 159 kts | 345° |
| 2026-04-26 14:28 | 47.98281 | 16.63593 | 2823 ft | 145 kts | 345° |
| 2026-04-26 14:28 | 47.99227 | 16.63195 | 2607 ft | 137 kts | 345° |
| 2026-04-26 14:29 | 48.00138 | 16.62815 | 2427 ft | 134 kts | 346° |
| 2026-04-26 14:29 | 48.01035 | 16.62436 | 2237 ft | 133 kts | 346° |
| 2026-04-26 14:29 | 48.01926 | 16.62056 | 2062 ft | 134 kts | 346° |
| 2026-04-26 14:29 | 48.02819 | 16.61681 | 1859 ft | 133 kts | 345° |
| 2026-04-26 14:30 | 48.03707 | 16.61302 | 1723 ft | 134 kts | 345° |
| 2026-04-26 14:30 | 48.04602 | 16.60923 | 1480 ft | 133 kts | 346° |
| 2026-04-26 14:30 | 48.05490 | 16.60554 | 1331 ft | 132 kts | 345° |
| 2026-04-26 14:30 | 48.06371 | 16.60188 | 1152 ft | 131 kts | 345° |
| 2026-04-26 14:31 | 48.07250 | 16.59823 | 967 ft | 131 kts | 345° |
| 2026-04-26 14:31 | 48.08115 | 16.59452 | 779 ft | 131 kts | 345° |
| 2026-04-26 14:31 | 48.08986 | 16.59081 | 641 ft | 130 kts | 347° |
| 2026-04-26 14:31 | 48.09765 | 16.58754 | 614 ft | 95 kts | 343° |
| 2026-04-26 14:32 | 48.10235 | 16.58555 | 616 ft | 41 kts | 344° |
| 2026-04-26 14:32 | 48.10441 | 16.58468 | 618 ft | 28 kts | 344° |
| 2026-04-26 14:32 | 48.10609 | 16.58391 | 616 ft | 24 kts | 335° |
| 2026-04-26 14:32 | 48.10744 | 16.58259 | 617 ft | 22 kts | 319° |
| 2026-04-26 14:33 | 48.10839 | 16.58115 | 612 ft | 19 kts | 314° |
| 2026-04-26 14:33 | 48.10932 | 16.57971 | 617 ft | 18 kts | 313° |
| 2026-04-26 14:33 | 48.11008 | 16.57855 | 616 ft | 16 kts | 315° |
| 2026-04-26 14:33 | 48.11096 | 16.57773 | 614 ft | 14 kts | 343° |
| 2026-04-26 14:34 | 48.11163 | 16.57696 | 618 ft | 13 kts | 299° |
| 2026-04-26 14:34 | 48.11206 | 16.57567 | 617 ft | 12 kts | 296° |
| 2026-04-26 14:34 | 48.11245 | 16.57447 | 619 ft | 14 kts | 295° |
| 2026-04-26 14:34 | 48.11289 | 16.57340 | 621 ft | 11 kts | 330° |
| 2026-04-26 14:35 | 48.11365 | 16.57369 | 613 ft | 13 kts | 26° |
| 2026-04-26 14:35 | 48.11434 | 16.57359 | 614 ft | 12 kts | 308° |
| 2026-04-26 14:35 | 48.11471 | 16.57250 | 617 ft | 10 kts | 296° |
| 2026-04-26 14:35 | 48.11485 | 16.57207 | 618 ft | 0 kts | 296° |
| 2026-04-26 14:36 | 48.11489 | 16.57195 | 614 ft | 3 kts | 296° |
| 2026-04-26 14:36 | 48.11480 | 16.57170 | 617 ft | 5 kts | 221° |
| 2026-04-26 14:36 | 48.11454 | 16.57150 | 616 ft | 4 kts | 206° |
| 2026-04-26 14:37 | 48.11433 | 16.57135 | 612 ft | 3 kts | 206° |
| 2026-04-26 14:37 | 48.11429 | 16.57131 | 614 ft | 0 kts | 206° |